Time;durP1;ratioP1;P1;durP2;ratioP2;P2;SDS_P1;SDS_P2;PMS_P1;PMS_P2;Temp;Humidity;BMP_temperature;BMP_pressure;BME280_temperature;BME280_humidity;BME280_pressure;Samples;Min_cycle;Max_cycle;Signal;HPM_P1;HPM_P2
2024/01/08 00:02:07;;;;;;;2.85;1.45;;;-1.30;98.70;;;;;;5050161;28;20287;-79
2024/01/08 00:04:34;;;;;;;1.98;1.58;;;-1.20;98.10;;;;;;5054897;27;20208;-78
2024/01/08 00:07:01;;;;;;;2.65;1.75;;;-1.20;98.10;;;;;;5046740;28;20215;-79
2024/01/08 00:09:29;;;;;;;4.25;2.03;;;-1.30;98.00;;;;;;5038368;28;20225;-79
2024/01/08 00:11:55;;;;;;;2.20;1.48;;;-1.30;98.50;;;;;;5036401;28;20669;-79
2024/01/08 00:14:22;;;;;;;1.25;1.08;;;-1.40;98.50;;;;;;5045001;28;20642;-79
2024/01/08 00:16:49;;;;;;;4.30;2.38;;;-1.40;98.50;;;;;;5041189;28;20288;-78
2024/01/08 00:19:16;;;;;;;2.05;1.80;;;-1.40;97.80;;;;;;5047232;28;20212;-79
2024/01/08 00:21:43;;;;;;;2.20;1.73;;;-1.60;97.90;;;;;;5043715;28;20199;-78
2024/01/08 00:24:09;;;;;;;3.35;2.35;;;-1.60;97.70;;;;;;5040574;28;20213;-79
2024/01/08 00:26:38;;;;;;;1.45;1.45;;;-1.50;97.70;;;;;;5043303;28;20239;-78
2024/01/08 00:29:04;;;;;;;3.38;1.45;;;-1.40;97.70;;;;;;5044145;28;20307;-79
2024/01/08 00:31:31;;;;;;;1.80;1.70;;;-1.30;97.50;;;;;;5033367;28;20231;-78
2024/01/08 00:33:58;;;;;;;3.30;2.75;;;-1.30;96.90;;;;;;5044728;28;20707;-79
2024/01/08 00:36:25;;;;;;;1.65;1.55;;;-1.40;96.80;;;;;;5039847;28;20202;-80
2024/01/08 00:38:53;;;;;;;1.83;1.73;;;-1.30;96.60;;;;;;5061075;28;20239;-79
2024/01/08 00:41:20;;;;;;;3.15;1.50;;;-1.40;96.80;;;;;;5040524;27;20271;-79
2024/01/08 00:43:51;;;;;;;2.15;1.52;;;-1.40;96.60;;;;;;5037574;28;20212;-79
2024/01/08 00:46:17;;;;;;;1.77;1.67;;;-1.60;96.90;;;;;;5040200;28;20212;-79
2024/01/08 00:48:44;;;;;;;10.43;1.45;;;-1.40;96.40;;;;;;5046982;28;20488;-79
2024/01/08 00:51:11;;;;;;;2.10;1.40;;;-1.50;96.40;;;;;;5044550;28;20286;-79
2024/01/08 00:53:38;;;;;;;2.15;1.38;;;-1.50;96.30;;;;;;5044136;28;20216;-78
2024/01/08 00:56:05;;;;;;;1.30;1.20;;;-1.50;97.10;;;;;;5050901;28;20213;-79
2024/01/08 00:58:32;;;;;;;2.88;1.92;;;-1.50;96.60;;;;;;5052965;27;20214;-79
2024/01/08 01:01:00;;;;;;;4.95;2.00;;;-1.50;96.40;;;;;;5051133;27;20208;-78
2024/01/08 01:03:27;;;;;;;1.48;1.38;;;-1.50;96.70;;;;;;5047633;28;20675;-79
2024/01/08 01:05:56;;;;;;;3.20;1.73;;;-1.50;96.30;;;;;;5053908;28;20210;-79
2024/01/08 01:08:23;;;;;;;9.13;2.08;;;-1.60;96.50;;;;;;5051770;28;20224;-78
2024/01/08 01:10:49;;;;;;;2.17;1.50;;;-1.50;96.40;;;;;;5051026;28;20325;-79
2024/01/08 01:13:16;;;;;;;2.40;1.63;;;-1.50;96.30;;;;;;5047082;28;20208;-79
2024/01/08 01:15:43;;;;;;;3.65;2.63;;;-1.30;96.20;;;;;;5044821;28;20605;-80
2024/01/08 01:18:11;;;;;;;1.65;1.52;;;-1.40;95.80;;;;;;5048193;28;20212;-80
2024/01/08 01:20:38;;;;;;;1.38;1.25;;;-1.50;95.90;;;;;;5049667;28;20203;-79
2024/01/08 01:23:05;;;;;;;2.88;1.85;;;-1.50;96.20;;;;;;5050409;28;20211;-80
2024/01/08 01:25:31;;;;;;;1.38;1.27;;;-1.40;96.40;;;;;;5044450;28;20212;-80
2024/01/08 01:27:58;;;;;;;2.35;1.88;;;-1.60;96.80;;;;;;5044804;28;20211;-79
2024/01/08 01:30:25;;;;;;;2.50;2.30;;;-1.60;96.30;;;;;;5044483;28;20210;-79
2024/01/08 01:32:52;;;;;;;3.35;1.77;;;-1.60;96.40;;;;;;5047541;27;20200;-80
2024/01/08 01:35:20;;;;;;;3.67;3.38;;;-1.60;96.20;;;;;;5045067;28;20212;-80
2024/01/08 01:37:47;;;;;;;6.10;2.30;;;-1.50;96.90;;;;;;5056500;28;20212;-79
2024/01/08 01:40:13;;;;;;;2.70;1.75;;;-1.50;96.90;;;;;;5052883;28;20259;-80
2024/01/08 01:42:40;;;;;;;3.05;1.85;;;-1.40;96.40;;;;;;5044624;28;20231;-81
2024/01/08 01:45:08;;;;;;;5.10;2.30;;;-1.50;96.00;;;;;;5048215;28;20660;-80
2024/01/08 01:47:35;;;;;;;2.20;2.00;;;-1.50;96.50;;;;;;5059904;28;20295;-79
2024/01/08 01:50:02;;;;;;;3.15;2.92;;;-1.40;96.80;;;;;;5053558;28;20584;-79
2024/01/08 01:52:30;;;;;;;2.00;1.85;;;-1.40;96.30;;;;;;5052022;28;20211;-79
2024/01/08 01:54:57;;;;;;;2.03;1.92;;;-1.40;95.60;;;;;;5050227;28;20208;-79
2024/01/08 01:57:24;;;;;;;4.63;2.15;;;-1.40;95.30;;;;;;5056794;28;20204;-80
2024/01/08 01:59:51;;;;;;;3.53;2.58;;;-1.40;95.40;;;;;;5051512;28;20209;-79
2024/01/08 02:02:18;;;;;;;3.50;1.63;;;-1.30;95.20;;;;;;5049390;28;20218;-79
2024/01/08 02:04:45;;;;;;;1.65;1.55;;;-1.30;95.30;;;;;;5055642;28;20214;-80
2024/01/08 02:07:11;;;;;;;2.25;1.45;;;-1.30;95.80;;;;;;5049668;28;20215;-80
2024/01/08 02:09:41;;;;;;;1.42;1.15;;;-1.40;95.70;;;;;;5052288;28;20601;-80
2024/01/08 02:12:09;;;;;;;2.20;2.00;;;-1.40;96.00;;;;;;5042898;28;20212;-79
2024/01/08 02:14:37;;;;;;;3.65;1.95;;;-1.40;95.20;;;;;;5052967;28;20208;-79
2024/01/08 02:17:04;;;;;;;3.78;2.03;;;-1.40;95.10;;;;;;5047857;28;20249;-80
2024/01/08 02:19:32;;;;;;;2.67;2.25;;;-1.40;95.30;;;;;;5052265;28;20200;-79
2024/01/08 02:21:59;;;;;;;3.42;1.80;;;-1.30;95.50;;;;;;5048196;27;20575;-80
2024/01/08 02:24:29;;;;;;;2.05;1.95;;;-1.40;95.40;;;;;;5049706;28;20209;-80
2024/01/08 02:26:58;;;;;;;7.43;2.90;;;-1.40;95.20;;;;;;5040419;28;20576;-80
2024/01/08 02:29:28;;;;;;;2.03;1.92;;;-1.30;95.40;;;;;;5039105;28;20277;-80
2024/01/08 02:31:56;;;;;;;2.40;2.20;;;-1.30;95.00;;;;;;5034775;28;20201;-80
2024/01/08 02:34:25;;;;;;;1.50;1.40;;;-1.40;95.30;;;;;;5045417;28;20209;-80
2024/01/08 02:36:52;;;;;;;2.70;1.83;;;-1.30;95.40;;;;;;5044244;27;20192;-79
2024/01/08 02:39:19;;;;;;;2.80;2.60;;;-1.30;95.70;;;;;;5054776;28;20306;-80
2024/01/08 02:41:48;;;;;;;1.75;1.63;;;-1.30;95.60;;;;;;5048677;28;20203;-80
2024/01/08 02:44:15;;;;;;;2.60;2.15;;;-1.30;95.60;;;;;;5052603;28;20569;-80
2024/01/08 02:46:43;;;;;;;3.67;2.95;;;-1.30;95.30;;;;;;5047307;28;20310;-80
2024/01/08 02:49:10;;;;;;;2.65;2.45;;;-1.30;95.30;;;;;;5046981;28;20228;-79
2024/01/08 02:51:37;;;;;;;1.98;1.80;;;-1.30;95.20;;;;;;5050382;28;20516;-81
2024/01/08 02:54:04;;;;;;;2.85;1.80;;;-1.30;94.60;;;;;;5047813;28;20207;-79
2024/01/08 02:56:34;;;;;;;2.67;2.38;;;-1.40;94.70;;;;;;5052996;28;20200;-80
2024/01/08 02:59:06;;;;;;;2.78;2.15;;;-1.40;94.70;;;;;;5046932;28;20201;-80
2024/01/08 03:01:36;;;;;;;3.60;2.75;;;-1.40;95.30;;;;;;5053762;28;20294;-80
2024/01/08 03:04:03;;;;;;;2.58;2.38;;;-1.40;95.80;;;;;;5052686;27;20270;-80
2024/01/08 03:06:30;;;;;;;1.88;1.50;;;-1.30;95.20;;;;;;5049578;28;20326;-80
2024/01/08 03:08:57;;;;;;;1.88;1.77;;;-1.40;95.00;;;;;;5046769;28;20213;-80
2024/01/08 03:11:24;;;;;;;3.13;2.92;;;-1.30;95.10;;;;;;5054768;28;20208;-81
2024/01/08 03:13:51;;;;;;;3.38;3.13;;;-1.40;95.10;;;;;;5051062;28;20211;-80
2024/01/08 03:16:19;;;;;;;2.50;1.55;;;-1.30;95.10;;;;;;5045428;28;20201;-80
2024/01/08 03:18:47;;;;;;;5.13;2.25;;;-1.20;95.10;;;;;;5042553;28;20235;-80
2024/01/08 03:21:14;;;;;;;1.83;1.73;;;-1.30;95.10;;;;;;5049277;28;20653;-80
2024/01/08 03:23:42;;;;;;;2.17;2.00;;;-1.20;95.20;;;;;;5043568;27;20288;-81
2024/01/08 03:26:10;;;;;;;3.88;2.30;;;-1.20;95.80;;;;;;5085616;27;20223;-80
2024/01/08 03:28:37;;;;;;;2.70;2.50;;;-1.20;95.80;;;;;;5088520;27;20552;-80
2024/01/08 03:31:05;;;;;;;2.55;2.35;;;-1.20;95.30;;;;;;5077082;27;20775;-80
2024/01/08 03:33:36;;;;;;;1.60;1.42;;;-1.10;95.10;;;;;;5079289;27;20655;-80
2024/01/08 03:36:03;;;;;;;1.90;1.80;;;-1.20;94.70;;;;;;5086976;27;20204;-80
2024/01/08 03:38:30;;;;;;;5.03;3.42;;;-1.20;94.60;;;;;;5085756;27;20220;-80
2024/01/08 03:40:57;;;;;;;1.70;1.60;;;-1.30;94.20;;;;;;5041417;28;20203;-80
2024/01/08 03:43:24;;;;;;;3.55;2.13;;;-1.30;94.30;;;;;;5046432;28;20211;-79
2024/01/08 03:45:51;;;;;;;2.83;2.58;;;-1.20;94.50;;;;;;5041817;28;20243;-80
2024/01/08 03:48:17;;;;;;;1.77;1.65;;;-1.20;94.40;;;;;;5044416;28;20216;-80
2024/01/08 03:50:45;;;;;;;2.03;1.60;;;-1.30;94.80;;;;;;5047930;27;20231;-80
2024/01/08 03:53:12;;;;;;;5.00;2.58;;;-1.30;94.90;;;;;;5044475;28;20205;-80
2024/01/08 03:55:39;;;;;;;2.97;2.30;;;-1.30;95.00;;;;;;5041340;28;20205;-80
2024/01/08 03:58:06;;;;;;;3.78;2.00;;;-1.30;94.60;;;;;;5055361;28;20732;-80
2024/01/08 04:00:33;;;;;;;2.83;2.10;;;-1.40;95.10;;;;;;5052498;27;20203;-80
2024/01/08 04:03:00;;;;;;;2.10;1.50;;;-1.30;95.00;;;;;;5062024;28;20204;-80
2024/01/08 04:05:26;;;;;;;1.35;1.35;;;-1.20;94.50;;;;;;5054030;28;20557;-80
2024/01/08 04:07:55;;;;;;;2.53;1.70;;;-1.30;94.40;;;;;;5054455;28;20211;-80
2024/01/08 04:10:22;;;;;;;2.00;1.90;;;-1.30;94.60;;;;;;5053094;28;20212;-80
2024/01/08 04:12:49;;;;;;;3.00;2.00;;;-1.30;94.50;;;;;;5055538;27;20211;-80
2024/01/08 04:15:16;;;;;;;2.80;2.03;;;-1.20;94.20;;;;;;5054721;28;20212;-80
2024/01/08 04:17:43;;;;;;;1.48;1.38;;;-1.20;94.00;;;;;;5047585;28;20569;-80
2024/01/08 04:20:10;;;;;;;1.33;1.10;;;-1.30;94.00;;;;;;5050537;28;20533;-80
2024/01/08 04:22:37;;;;;;;3.25;2.05;;;-1.40;93.90;;;;;;5046406;27;20230;-80
2024/01/08 04:25:06;;;;;;;2.90;2.70;;;-1.40;94.20;;;;;;5050011;28;20287;-80
2024/01/08 04:27:32;;;;;;;1.75;1.50;;;-1.40;94.20;;;;;;5051374;27;20211;-80
2024/01/08 04:29:59;;;;;;;4.13;1.98;;;-1.30;94.00;;;;;;5046840;28;20226;-80
2024/01/08 04:32:26;;;;;;;2.20;2.10;;;-1.40;94.00;;;;;;5050259;28;20262;-80
2024/01/08 04:34:53;;;;;;;2.03;1.92;;;-1.40;93.70;;;;;;5046752;28;20207;-80
2024/01/08 04:37:20;;;;;;;2.20;2.10;;;-1.40;94.30;;;;;;5046994;28;20680;-80
2024/01/08 04:39:46;;;;;;;3.05;2.75;;;-1.30;94.00;;;;;;5039826;28;20626;-80
2024/01/08 04:42:14;;;;;;;1.77;1.67;;;-1.30;93.90;;;;;;5046902;28;20211;-80
2024/01/08 04:44:41;;;;;;;1.73;1.63;;;-1.40;93.90;;;;;;5048626;28;20710;-80
2024/01/08 04:47:08;;;;;;;1.65;1.55;;;-1.50;94.70;;;;;;5045471;28;20216;-80
2024/01/08 04:49:35;;;;;;;3.40;2.50;;;-1.40;94.00;;;;;;5044259;28;20307;-80
2024/01/08 04:52:01;;;;;;;3.13;1.65;;;-1.40;93.40;;;;;;5037802;28;20292;-80
2024/01/08 04:54:28;;;;;;;1.63;1.52;;;-1.40;93.70;;;;;;5032476;28;20258;-81
2024/01/08 04:56:56;;;;;;;2.75;2.25;;;-1.40;94.00;;;;;;5039739;28;20699;-80
2024/01/08 04:59:24;;;;;;;3.28;2.97;;;-1.30;93.40;;;;;;5047401;28;20212;-80
2024/01/08 05:01:51;;;;;;;2.67;2.00;;;-1.30;93.10;;;;;;5049318;28;20325;-80
2024/01/08 05:04:18;;;;;;;1.30;1.20;;;-1.50;93.20;;;;;;5046563;28;20236;-82
2024/01/08 05:06:45;;;;;;;3.30;1.58;;;-1.50;93.60;;;;;;5055192;28;20215;-81
2024/01/08 05:09:13;;;;;;;2.40;2.00;;;-1.60;93.80;;;;;;5050385;28;20699;-82
2024/01/08 05:11:40;;;;;;;4.20;1.95;;;-1.50;93.60;;;;;;5052475;28;20220;-82
2024/01/08 05:14:08;;;;;;;2.10;1.98;;;-1.50;93.70;;;;;;5055681;28;20731;-79
2024/01/08 05:16:37;;;;;;;3.28;3.03;;;-1.60;94.10;;;;;;5055376;27;20207;-79
2024/01/08 05:19:03;;;;;;;2.08;1.88;;;-1.60;94.20;;;;;;5050906;28;20612;-80
2024/01/08 05:21:30;;;;;;;2.47;1.60;;;-1.60;94.40;;;;;;5049912;28;20585;-80
2024/01/08 05:23:57;;;;;;;2.45;2.25;;;-1.60;94.00;;;;;;5043860;28;20359;-81
2024/01/08 05:26:24;;;;;;;1.88;1.77;;;-1.60;94.30;;;;;;5053282;28;20338;-80
2024/01/08 05:28:51;;;;;;;2.10;2.00;;;-1.50;94.10;;;;;;5045174;28;20229;-81
2024/01/08 05:31:18;;;;;;;2.70;2.45;;;-1.50;94.20;;;;;;5047958;28;20225;-80
2024/01/08 05:33:46;;;;;;;2.47;2.28;;;-1.50;94.20;;;;;;5054675;27;20211;-81
2024/01/08 05:36:12;;;;;;;3.70;2.85;;;-1.50;94.50;;;;;;5046451;28;20209;-81
2024/01/08 05:38:39;;;;;;;2.53;2.33;;;-1.50;94.20;;;;;;5049495;28;20208;-80
2024/01/08 05:41:06;;;;;;;5.55;1.73;;;-1.40;94.40;;;;;;5049605;28;20287;-82
2024/01/08 05:43:37;;;;;;;2.60;2.40;;;-1.50;94.40;;;;;;5048477;28;20299;-80
2024/01/08 05:46:05;;;;;;;5.43;2.78;;;-1.50;94.70;;;;;;5048548;28;20625;-78
2024/01/08 05:48:37;;;;;;;1.70;1.60;;;-1.50;94.90;;;;;;5048454;28;20217;-78
2024/01/08 05:51:06;;;;;;;1.50;1.40;;;-1.40;95.10;;;;;;5045179;28;20944;-80
2024/01/08 05:53:33;;;;;;;2.63;2.42;;;-1.40;95.10;;;;;;5043540;27;20250;-73
2024/01/08 05:55:59;;;;;;;3.50;2.40;;;-1.40;95.40;;;;;;5037857;28;20205;-75
2024/01/08 05:58:26;;;;;;;3.03;2.65;;;-1.40;94.90;;;;;;5052006;28;20211;-77
2024/01/08 06:00:54;;;;;;;1.90;1.80;;;-1.50;94.70;;;;;;5056911;28;20208;-76
2024/01/08 06:03:20;;;;;;;1.88;1.77;;;-1.40;94.80;;;;;;5052513;27;20216;-78
2024/01/08 06:05:47;;;;;;;2.40;2.00;;;-1.40;94.00;;;;;;5052798;28;20239;-78
2024/01/08 06:08:15;;;;;;;1.73;1.52;;;-1.40;93.50;;;;;;5047260;28;20212;-76
2024/01/08 06:10:42;;;;;;;2.83;1.92;;;-1.40;93.30;;;;;;5038989;28;20226;-75
2024/01/08 06:13:10;;;;;;;2.28;2.17;;;-1.50;93.10;;;;;;5047415;28;20242;-78
2024/01/08 06:15:37;;;;;;;2.83;2.58;;;-1.50;93.10;;;;;;5038033;28;20210;-78
2024/01/08 06:18:05;;;;;;;2.90;2.70;;;-1.50;93.00;;;;;;5044377;28;20205;-78
2024/01/08 06:20:33;;;;;;;1.92;1.50;;;-1.60;92.80;;;;;;5035242;28;20279;-82
2024/01/08 06:23:00;;;;;;;3.92;1.95;;;-1.60;92.50;;;;;;5038078;28;20217;-80
2024/01/08 06:25:29;;;;;;;1.65;1.55;;;-1.60;92.70;;;;;;5042932;28;20286;-79
2024/01/08 06:27:55;;;;;;;3.40;2.67;;;-1.60;92.80;;;;;;5043262;28;20211;-78
2024/01/08 06:30:22;;;;;;;3.03;2.13;;;-1.60;92.60;;;;;;5037279;28;20228;-79
2024/01/08 06:32:49;;;;;;;2.22;2.03;;;-1.60;92.20;;;;;;5032030;28;20215;-79
2024/01/08 06:35:16;;;;;;;4.10;2.85;;;-1.60;92.30;;;;;;5039381;28;20602;-78
2024/01/08 06:37:43;;;;;;;2.33;2.13;;;-1.70;92.40;;;;;;5040303;28;20220;-78
2024/01/08 06:40:10;;;;;;;10.02;2.47;;;-1.80;92.30;;;;;;5033783;28;20680;-78
2024/01/08 06:42:39;;;;;;;2.25;1.73;;;-1.80;92.40;;;;;;5043851;28;20239;-83
2024/01/08 06:45:06;;;;;;;4.80;2.60;;;-1.80;92.50;;;;;;5033069;27;20673;-80
2024/01/08 06:47:33;;;;;;;2.78;1.65;;;-1.70;92.80;;;;;;5033670;27;20360;-79
2024/01/08 06:50:00;;;;;;;3.15;1.40;;;-1.60;92.50;;;;;;5037174;27;20988;-80
2024/01/08 06:52:27;;;;;;;2.10;1.40;;;-1.70;92.80;;;;;;5037788;27;20225;-80
2024/01/08 06:54:54;;;;;;;2.42;2.00;;;-1.70;92.70;;;;;;5032272;27;20213;-81
2024/01/08 06:57:22;;;;;;;2.33;1.92;;;-1.80;93.10;;;;;;5040307;27;20726;-80
2024/01/08 06:59:50;;;;;;;6.30;2.20;;;-1.60;93.40;;;;;;5044931;28;20232;-85
2024/01/08 07:02:17;;;;;;;1.60;1.50;;;-1.60;93.10;;;;;;5054456;27;20235;-82
2024/01/08 07:04:44;;;;;;;2.83;2.63;;;-1.60;93.00;;;;;;5043473;28;20242;-81
2024/01/08 07:07:11;;;;;;;1.50;1.40;;;-1.50;92.80;;;;;;5038961;27;20260;-81
2024/01/08 07:09:37;;;;;;;2.67;2.15;;;-1.50;92.70;;;;;;5037690;28;20204;-80
2024/01/08 07:12:05;;;;;;;2.90;2.03;;;-1.50;92.10;;;;;;5041501;28;20669;-82
2024/01/08 07:14:38;;;;;;;3.00;2.47;;;-1.70;92.00;;;;;;5037008;28;20294;-81
2024/01/08 07:17:06;;;;;;;2.40;2.15;;;-1.70;92.00;;;;;;5052227;28;20204;-81
2024/01/08 07:19:33;;;;;;;3.50;2.63;;;-1.60;92.00;;;;;;5045427;28;20219;-80
2024/01/08 07:22:00;;;;;;;1.65;1.40;;;-1.60;92.00;;;;;;5047080;27;20211;-81
2024/01/08 07:24:28;;;;;;;1.98;1.88;;;-1.60;91.90;;;;;;5055947;27;20204;-81
2024/01/08 07:26:56;;;;;;;2.35;2.25;;;-1.70;91.90;;;;;;5033972;27;20288;-81
2024/01/08 07:29:23;;;;;;;1.90;1.77;;;-1.80;91.90;;;;;;5049543;27;20291;-81
2024/01/08 07:31:51;;;;;;;2.35;1.95;;;-1.80;92.30;;;;;;5069263;27;20225;-81
2024/01/08 07:34:19;;;;;;;3.55;3.25;;;-1.70;92.80;;;;;;5048418;27;20215;-81
2024/01/08 07:36:46;;;;;;;4.43;2.58;;;-1.80;93.00;;;;;;5042682;27;20210;-81
2024/01/08 07:39:14;;;;;;;3.53;2.45;;;-1.80;92.90;;;;;;5032398;27;21304;-82
2024/01/08 07:41:41;;;;;;;2.35;2.10;;;-1.80;92.70;;;;;;5040083;27;20203;-82
2024/01/08 07:44:08;;;;;;;2.33;2.13;;;-1.70;92.50;;;;;;5042010;27;20379;-82
2024/01/08 07:46:34;;;;;;;1.83;1.73;;;-1.60;92.00;;;;;;5034423;27;20292;-81
2024/01/08 07:49:01;;;;;;;6.97;2.90;;;-1.70;91.70;;;;;;5031951;27;20303;-82
2024/01/08 07:51:29;;;;;;;2.63;2.08;;;-1.80;91.60;;;;;;5038792;27;20224;-81
2024/01/08 07:53:56;;;;;;;6.38;2.53;;;-1.70;91.60;;;;;;5036512;27;20672;-82
2024/01/08 07:56:25;;;;;;;2.15;1.55;;;-1.80;92.00;;;;;;5025927;27;20205;-83
2024/01/08 07:58:52;;;;;;;3.47;2.40;;;-1.60;91.50;;;;;;5032103;27;20208;-87
2024/01/08 08:01:19;;;;;;;2.05;1.90;;;-1.70;91.70;;;;;;5053902;27;20236;-85
2024/01/08 08:03:46;;;;;;;1.70;1.60;;;-1.70;91.40;;;;;;5042114;27;20240;-81
2024/01/08 08:06:13;;;;;;;1.77;1.67;;;-1.80;91.30;;;;;;5043305;28;20298;-81
2024/01/08 08:08:41;;;;;;;3.63;2.42;;;-1.80;91.90;;;;;;5044905;27;20612;-81
2024/01/08 08:11:08;;;;;;;3.00;2.00;;;-1.80;92.40;;;;;;5049341;27;20254;-82
2024/01/08 08:13:35;;;;;;;1.90;1.80;;;-1.70;92.10;;;;;;5042490;27;20204;-81
2024/01/08 08:16:02;;;;;;;5.13;3.38;;;-1.60;91.60;;;;;;5046063;28;20213;-82
2024/01/08 08:18:29;;;;;;;2.95;1.80;;;-1.60;91.80;;;;;;5050395;28;20299;-82
2024/01/08 08:20:57;;;;;;;1.33;1.23;;;-1.70;91.60;;;;;;5048501;27;20300;-82
2024/01/08 08:23:24;;;;;;;4.93;2.20;;;-1.70;91.20;;;;;;5038071;28;20239;-82
2024/01/08 08:25:52;;;;;;;2.97;1.98;;;-1.50;91.30;;;;;;5048227;27;20257;-81
2024/01/08 08:28:19;;;;;;;7.38;2.80;;;-1.50;91.20;;;;;;5049198;27;20295;-82
2024/01/08 08:30:47;;;;;;;3.85;2.17;;;-1.60;91.50;;;;;;5052045;27;20223;-82
2024/01/08 08:33:14;;;;;;;2.75;2.65;;;-1.70;91.90;;;;;;5042628;27;20259;-83
2024/01/08 08:35:41;;;;;;;2.85;2.65;;;-1.70;92.00;;;;;;5034932;28;20204;-83
2024/01/08 08:38:07;;;;;;;3.35;2.38;;;-1.70;91.50;;;;;;5042406;28;20209;-83
2024/01/08 08:40:34;;;;;;;2.88;2.60;;;-1.70;91.30;;;;;;5049113;27;20654;-81
2024/01/08 08:43:02;;;;;;;3.17;2.13;;;-1.70;91.40;;;;;;5039864;27;20290;-80
2024/01/08 08:45:29;;;;;;;2.55;1.80;;;-1.60;91.50;;;;;;5038285;28;20208;-80
2024/01/08 08:47:56;;;;;;;3.30;2.72;;;-1.60;91.80;;;;;;5037446;27;20216;-80
2024/01/08 08:50:23;;;;;;;1.90;1.77;;;-1.70;91.80;;;;;;5043240;27;20764;-80
2024/01/08 08:52:50;;;;;;;2.55;2.15;;;-1.70;92.00;;;;;;5033550;27;20196;-79
2024/01/08 08:55:16;;;;;;;2.60;1.95;;;-1.70;92.10;;;;;;5032812;27;20204;-81
2024/01/08 08:57:44;;;;;;;1.95;1.85;;;-1.70;92.20;;;;;;5034058;27;20236;-82
2024/01/08 09:00:13;;;;;;;2.45;1.50;;;-1.50;91.70;;;;;;5040670;27;20211;-82
2024/01/08 09:02:39;;;;;;;2.83;2.50;;;-1.60;91.40;;;;;;5047942;27;20233;-83
2024/01/08 09:05:07;;;;;;;5.45;2.63;;;-1.60;91.40;;;;;;5037706;28;20208;-83
2024/01/08 09:07:34;;;;;;;1.95;1.73;;;-1.70;91.40;;;;;;5050390;27;20225;-80
2024/01/08 09:10:02;;;;;;;1.38;1.27;;;-1.50;91.40;;;;;;5041103;28;20659;-81
2024/01/08 09:12:28;;;;;;;2.75;1.85;;;-1.50;91.20;;;;;;5051295;27;20227;-81
2024/01/08 09:14:56;;;;;;;1.75;1.58;;;-1.40;91.40;;;;;;5050139;27;20292;-80
2024/01/08 09:17:25;;;;;;;3.08;2.38;;;-1.50;91.00;;;;;;5050897;28;20226;-80
2024/01/08 09:19:52;;;;;;;1.23;1.23;;;-1.50;91.40;;;;;;5045254;28;20217;-80
2024/01/08 09:22:19;;;;;;;1.90;1.50;;;-1.50;91.30;;;;;;5079081;27;20680;-81
2024/01/08 09:24:46;;;;;;;1.63;1.52;;;-1.40;91.40;;;;;;5043061;28;20205;-82
2024/01/08 09:27:13;;;;;;;3.15;2.30;;;-1.50;91.40;;;;;;5046887;28;20301;-82
2024/01/08 09:29:40;;;;;;;1.60;1.40;;;-1.40;91.90;;;;;;5040614;28;20236;-82
2024/01/08 09:32:07;;;;;;;4.95;3.60;;;-1.40;92.20;;;;;;5073381;27;20766;-82
2024/01/08 09:34:35;;;;;;;2.35;1.95;;;-1.30;92.10;;;;;;5045457;27;20211;-82
2024/01/08 09:37:02;;;;;;;3.25;2.00;;;-1.30;91.30;;;;;;5044198;27;20219;-81
2024/01/08 09:39:29;;;;;;;3.55;2.38;;;-1.30;90.90;;;;;;5040825;27;20209;-81
2024/01/08 09:41:58;;;;;;;2.95;2.20;;;-1.40;91.10;;;;;;5063427;27;20640;-82
2024/01/08 09:44:25;;;;;;;2.63;2.35;;;-1.30;91.20;;;;;;5037342;27;20232;-81
2024/01/08 09:46:53;;;;;;;2.72;2.53;;;-1.30;91.10;;;;;;5042493;27;20614;-82
2024/01/08 09:49:21;;;;;;;4.28;2.10;;;-1.20;90.80;;;;;;5037881;27;20219;-81
2024/01/08 09:51:49;;;;;;;2.00;1.90;;;-1.20;90.50;;;;;;5045141;27;20224;-82
2024/01/08 09:54:20;;;;;;;1.90;1.75;;;-1.30;90.80;;;;;;5037085;27;20204;-82
2024/01/08 09:56:50;;;;;;;4.53;1.95;;;-1.30;90.50;;;;;;5027168;27;20213;-82
2024/01/08 09:59:17;;;;;;;3.53;2.05;;;-1.30;90.70;;;;;;5046028;28;20226;-82
2024/01/08 10:01:44;;;;;;;1.48;1.27;;;-1.20;90.50;;;;;;5061596;27;20200;-81
2024/01/08 10:04:11;;;;;;;2.08;1.98;;;-1.30;90.60;;;;;;5045772;28;20203;-82
2024/01/08 10:06:39;;;;;;;2.55;2.15;;;-1.30;90.90;;;;;;5051690;27;20534;-83
2024/01/08 10:09:07;;;;;;;1.00;1.00;;;-1.20;90.60;;;;;;5051197;28;20231;-77
2024/01/08 10:11:35;;;;;;;2.40;2.17;;;-1.10;90.50;;;;;;5047654;27;21020;-76
2024/01/08 10:14:02;;;;;;;2.05;1.85;;;-1.00;90.60;;;;;;5058730;27;20200;-77
2024/01/08 10:16:28;;;;;;;2.08;1.90;;;-1.20;90.50;;;;;;5051785;27;20715;-81
2024/01/08 10:18:55;;;;;;;1.75;1.65;;;-1.20;90.90;;;;;;5047564;27;20206;-80
2024/01/08 10:21:22;;;;;;;2.25;2.05;;;-1.20;90.40;;;;;;5046889;27;20618;-80
2024/01/08 10:23:49;;;;;;;3.30;2.63;;;-1.20;90.40;;;;;;5056244;27;20204;-80
2024/01/08 10:26:17;;;;;;;5.55;2.72;;;-1.10;90.00;;;;;;5038973;28;20676;-81
2024/01/08 10:28:46;;;;;;;2.40;2.20;;;-1.10;89.40;;;;;;5045703;27;20211;-83
2024/01/08 10:31:14;;;;;;;2.33;2.17;;;-1.10;89.30;;;;;;5034701;28;20252;-82
2024/01/08 10:33:41;;;;;;;2.70;1.65;;;-1.00;89.00;;;;;;5048942;27;20214;-83
2024/01/08 10:36:09;;;;;;;2.58;2.28;;;-1.10;89.20;;;;;;5035435;27;20288;-83
2024/01/08 10:38:36;;;;;;;2.25;1.30;;;-1.20;89.70;;;;;;5042658;27;20287;-83
2024/01/08 10:41:04;;;;;;;1.90;1.80;;;-1.20;90.40;;;;;;5042132;27;20207;-83
2024/01/08 10:43:32;;;;;;;1.55;1.45;;;-1.10;90.10;;;;;;5037818;27;20213;-83
2024/01/08 10:46:02;;;;;;;1.73;1.63;;;-1.20;88.80;;;;;;5041726;27;20284;-82
2024/01/08 10:48:40;;;;;;;3.03;2.70;;;-1.20;89.70;;;;;;5045764;27;20311;-83
2024/01/08 10:51:08;;;;;;;1.70;1.60;;;-1.10;89.80;;;;;;5037321;27;20228;-82
2024/01/08 10:53:41;;;;;;;5.00;2.10;;;-1.10;89.50;;;;;;5037621;27;20205;-81
2024/01/08 10:56:13;;;;;;;1.70;1.58;;;-1.10;89.30;;;;;;5053361;27;20201;-81
2024/01/08 10:58:49;;;;;;;2.60;1.73;;;-1.20;88.50;;;;;;5047512;27;20217;-82
2024/01/08 11:01:16;;;;;;;2.92;2.63;;;-1.20;89.20;;;;;;5042245;27;20265;-79
2024/01/08 11:03:44;;;;;;;6.38;2.78;;;-1.20;89.60;;;;;;5043942;28;20236;-81
2024/01/08 11:06:12;;;;;;;2.65;1.88;;;-1.20;89.90;;;;;;5053610;27;20210;-81
2024/01/08 11:08:38;;;;;;;6.15;2.83;;;-1.20;90.20;;;;;;5043182;27;20209;-80
2024/01/08 11:11:09;;;;;;;1.45;1.08;;;-1.20;90.00;;;;;;5035145;28;20224;-81
2024/01/08 11:13:36;;;;;;;5.15;2.47;;;-1.10;90.10;;;;;;5043625;28;20283;-81
2024/01/08 11:16:07;;;;;;;3.65;1.85;;;-1.10;90.40;;;;;;5043776;28;20205;-81
2024/01/08 11:18:34;;;;;;;6.07;2.30;;;-1.10;90.30;;;;;;5049736;28;20230;-88
2024/01/08 11:21:01;;;;;;;3.22;1.70;;;-1.20;90.10;;;;;;5044478;27;20265;-87
2024/01/08 11:23:32;;;;;;;1.65;1.55;;;-1.20;90.20;;;;;;5056274;27;20311;-86
2024/01/08 11:26:00;;;;;;;1.45;1.27;;;-1.20;90.10;;;;;;5053165;27;20212;-84
2024/01/08 11:28:28;;;;;;;2.33;1.90;;;-1.10;90.20;;;;;;5047008;28;20200;-85
2024/01/08 11:31:20;;;;;;;2.20;2.10;;;-1.10;90.20;;;;;;5038277;27;20209;-86
2024/01/08 11:34:24;;;;;;;2.45;2.03;;;-1.10;90.70;;;;;;5050988;27;20216;-86
2024/01/08 11:36:57;;;;;;;0.77;0.77;;;-1.00;90.50;;;;;;5043713;27;20251;-80
2024/01/08 11:39:28;;;;;;;1.10;1.10;;;-0.90;90.30;;;;;;5047503;27;20609;-86
2024/01/08 11:41:55;;;;;;;1.98;1.20;;;-0.90;89.50;;;;;;5063381;27;20204;-84
2024/01/08 11:44:22;;;;;;;2.60;2.40;;;-0.90;90.00;;;;;;5049532;27;20207;-87
2024/01/08 11:46:50;;;;;;;1.33;1.15;;;-0.90;89.70;;;;;;5037584;27;20207;-87
2024/01/08 11:49:18;;;;;;;2.75;2.55;;;-1.00;90.10;;;;;;5047070;27;20597;-78
2024/01/08 11:51:48;;;;;;;3.58;2.20;;;-0.80;89.60;;;;;;5035807;27;20766;-83
2024/01/08 11:54:16;;;;;;;2.08;1.83;;;-0.70;88.80;;;;;;5024809;28;20483;-84
2024/01/08 11:56:43;;;;;;;2.95;1.98;;;-0.70;89.00;;;;;;5031525;27;20212;-80
2024/01/08 11:59:10;;;;;;;2.00;1.70;;;-0.70;89.00;;;;;;5032986;27;20319;-84
2024/01/08 12:01:37;;;;;;;6.80;1.95;;;-0.70;88.40;;;;;;5039441;27;20211;-83
2024/01/08 12:04:06;;;;;;;2.08;1.77;;;-0.70;89.40;;;;;;5047757;28;20600;-84
2024/01/08 12:06:33;;;;;;;1.65;1.40;;;-0.70;89.00;;;;;;5056152;27;20215;-84
2024/01/08 12:09:00;;;;;;;2.55;2.35;;;-0.50;88.90;;;;;;5036652;27;20750;-85
2024/01/08 12:11:27;;;;;;;2.00;1.90;;;-0.50;89.10;;;;;;5052097;27;20226;-84
2024/01/08 12:13:54;;;;;;;4.88;1.70;;;-0.50;88.10;;;;;;5051779;28;20661;-84
2024/01/08 12:16:21;;;;;;;1.77;1.63;;;-0.60;87.80;;;;;;5059182;27;20268;-85
2024/01/08 12:18:48;;;;;;;3.10;1.83;;;-0.60;88.10;;;;;;5053386;27;20231;-86
2024/01/08 12:21:18;;;;;;;3.10;1.70;;;-0.50;87.80;;;;;;5058352;27;20737;-85
2024/01/08 12:23:45;;;;;;;2.28;2.08;;;-0.50;87.80;;;;;;5054735;27;20219;-85
2024/01/08 12:26:12;;;;;;;4.50;1.73;;;-0.60;87.00;;;;;;5055758;27;20224;-85
2024/01/08 12:28:42;;;;;;;1.98;1.60;;;-0.50;87.60;;;;;;5038416;27;20302;-86
2024/01/08 12:31:10;;;;;;;5.47;3.10;;;-0.50;88.40;;;;;;5046201;27;20254;-85
2024/01/08 12:33:37;;;;;;;4.15;1.65;;;0.10;88.60;;;;;;5051067;27;20234;-84
2024/01/08 12:36:04;;;;;;;4.13;1.83;;;-0.50;88.10;;;;;;5051721;27;20241;-85
2024/01/08 12:38:34;;;;;;;2.65;2.30;;;-0.40;88.50;;;;;;5048352;27;20237;-84
2024/01/08 12:41:01;;;;;;;1.58;1.48;;;-0.50;87.90;;;;;;5044057;27;20197;-84
2024/01/08 12:43:29;;;;;;;2.97;2.60;;;-0.50;88.60;;;;;;5041881;27;20254;-84
2024/01/08 12:45:56;;;;;;;1.73;1.42;;;-0.30;87.30;;;;;;5039879;27;20204;-85
2024/01/08 12:48:23;;;;;;;2.70;1.58;;;-0.40;89.10;;;;;;5036364;27;20211;-84
2024/01/08 12:50:50;;;;;;;2.35;2.10;;;-0.40;88.10;;;;;;5045340;27;20259;-85